Terminal Aerodrome Forecast
Issued by NWS Quad Cities IA IL

Home | Current Version | Previous Version | Text Only | Print | Product List | Glossary On
Versions: 1 2 3 4 5 6 7 8 9 10 11 12 13 14 15 16 17 18 19 20 21 22 23 24
000
FTUS43 KDVN 022300 RRA
TAFDBQ
TAF
KDBQ 022349Z 0300/0324 16007KT P6SM OVC080
     FM030900 16014G18KT 4SM -SN BR OVC035
     FM031200 17016G21KT 3SM -SN BR OVC020
     FM031500 18017G22KT 2SM -SN BR OVC012
     FM031800 22011KT 5SM BR OVC015
     FM032100 28014KT P6SM OVC022=

USA.gov is the U.S. government's official web portal to all federal, state and local government web resources and services.